sensor_id;sensor_type;location;lat;lon;timestamp;temperature;humidity
23744;DHT22;12052;53.478;10.182;2023-09-12T00:00:55;20.30;99.90
23744;DHT22;12052;53.478;10.182;2023-09-12T00:03:22;20.30;99.90
23744;DHT22;12052;53.478;10.182;2023-09-12T00:05:52;20.20;99.90
23744;DHT22;12052;53.478;10.182;2023-09-12T00:08:18;20.20;99.90
23744;DHT22;12052;53.478;10.182;2023-09-12T00:10:44;20.20;99.90
23744;DHT22;12052;53.478;10.182;2023-09-12T00:13:09;20.20;99.90
23744;DHT22;12052;53.478;10.182;2023-09-12T00:15:35;20.10;99.90
23744;DHT22;12052;53.478;10.182;2023-09-12T00:18:00;20.10;99.90
23744;DHT22;12052;53.478;10.182;2023-09-12T00:20:26;20.10;99.90
23744;DHT22;12052;53.478;10.182;2023-09-12T00:22:51;20.10;99.90
23744;DHT22;12052;53.478;10.182;2023-09-12T00:25:20;20.10;99.90
23744;DHT22;12052;53.478;10.182;2023-09-12T00:27:46;20.00;99.90
23744;DHT22;12052;53.478;10.182;2023-09-12T00:30:11;20.00;99.90
23744;DHT22;12052;53.478;10.182;2023-09-12T00:32:37;20.00;99.90
23744;DHT22;12052;53.478;10.182;2023-09-12T00:35:03;19.90;99.90
23744;DHT22;12052;53.478;10.182;2023-09-12T00:37:28;19.90;99.90
23744;DHT22;12052;53.478;10.182;2023-09-12T00:39:54;19.90;99.90
23744;DHT22;12052;53.478;10.182;2023-09-12T00:42:19;19.90;99.90
23744;DHT22;12052;53.478;10.182;2023-09-12T00:44:45;19.90;99.90
23744;DHT22;12052;53.478;10.182;2023-09-12T00:47:11;20.00;99.90
23744;DHT22;12052;53.478;10.182;2023-09-12T00:49:38;20.00;99.90
23744;DHT22;12052;53.478;10.182;2023-09-12T00:52:05;20.00;99.90
23744;DHT22;12052;53.478;10.182;2023-09-12T00:54:31;20.00;99.90
23744;DHT22;12052;53.478;10.182;2023-09-12T00:56:57;20.00;99.90
23744;DHT22;12052;53.478;10.182;2023-09-12T00:59:22;20.00;99.90
23744;DHT22;12052;53.478;10.182;2023-09-12T01:01:48;20.00;99.90
23744;DHT22;12052;53.478;10.182;2023-09-12T01:04:14;20.00;99.90
23744;DHT22;12052;53.478;10.182;2023-09-12T01:06:40;20.00;99.90
23744;DHT22;12052;53.478;10.182;2023-09-12T01:09:05;20.00;99.90
23744;DHT22;12052;53.478;10.182;2023-09-12T01:11:31;20.00;99.90
23744;DHT22;12052;53.478;10.182;2023-09-12T01:13:57;20.00;99.90
23744;DHT22;12052;53.478;10.182;2023-09-12T01:16:23;20.00;99.90
23744;DHT22;12052;53.478;10.182;2023-09-12T01:18:48;20.00;99.90
23744;DHT22;12052;53.478;10.182;2023-09-12T01:29:39;19.90;99.90
23744;DHT22;12052;53.478;10.182;2023-09-12T01:32:05;19.90;99.90
23744;DHT22;12052;53.478;10.182;2023-09-12T01:34:30;19.90;99.90
23744;DHT22;12052;53.478;10.182;2023-09-12T01:36:56;19.90;99.90
23744;DHT22;12052;53.478;10.182;2023-09-12T01:39:22;20.00;99.90
23744;DHT22;12052;53.478;10.182;2023-09-12T01:41:48;20.00;99.90
23744;DHT22;12052;53.478;10.182;2023-09-12T01:44:15;20.00;99.90
23744;DHT22;12052;53.478;10.182;2023-09-12T01:46:43;20.00;99.90
23744;DHT22;12052;53.478;10.182;2023-09-12T01:49:10;19.90;99.90
23744;DHT22;12052;53.478;10.182;2023-09-12T01:51:36;19.90;99.90
23744;DHT22;12052;53.478;10.182;2023-09-12T01:54:03;20.00;99.90
23744;DHT22;12052;53.478;10.182;2023-09-12T01:56:29;20.00;99.90
23744;DHT22;12052;53.478;10.182;2023-09-12T01:58:55;20.00;99.90
23744;DHT22;12052;53.478;10.182;2023-09-12T02:01:21;20.00;99.90
23744;DHT22;12052;53.478;10.182;2023-09-12T02:03:47;20.00;99.90
23744;DHT22;12052;53.478;10.182;2023-09-12T02:06:12;20.00;99.90
23744;DHT22;12052;53.478;10.182;2023-09-12T02:08:38;20.10;99.90
23744;DHT22;12052;53.478;10.182;2023-09-12T02:11:03;20.00;99.90
23744;DHT22;12052;53.478;10.182;2023-09-12T02:13:29;20.00;99.90
23744;DHT22;12052;53.478;10.182;2023-09-12T02:16:01;20.00;99.90
23744;DHT22;12052;53.478;10.182;2023-09-12T02:18:28;19.90;99.90
23744;DHT22;12052;53.478;10.182;2023-09-12T02:20:54;19.80;99.90
23744;DHT22;12052;53.478;10.182;2023-09-12T02:23:19;19.80;99.90
23744;DHT22;12052;53.478;10.182;2023-09-12T02:25:45;19.80;99.90
23744;DHT22;12052;53.478;10.182;2023-09-12T02:28:10;19.80;99.90
23744;DHT22;12052;53.478;10.182;2023-09-12T02:30:38;19.80;99.90
23744;DHT22;12052;53.478;10.182;2023-09-12T02:33:05;19.70;99.90
23744;DHT22;12052;53.478;10.182;2023-09-12T02:35:31;19.60;99.90
23744;DHT22;12052;53.478;10.182;2023-09-12T02:37:57;19.50;99.90
23744;DHT22;12052;53.478;10.182;2023-09-12T02:40:22;19.40;99.90
23744;DHT22;12052;53.478;10.182;2023-09-12T02:42:48;19.40;99.90
23744;DHT22;12052;53.478;10.182;2023-09-12T02:45:13;19.30;99.90
23744;DHT22;12052;53.478;10.182;2023-09-12T02:47:39;19.30;99.90
23744;DHT22;12052;53.478;10.182;2023-09-12T02:50:05;19.30;99.90
23744;DHT22;12052;53.478;10.182;2023-09-12T02:52:31;19.30;99.90
23744;DHT22;12052;53.478;10.182;2023-09-12T02:54:57;19.30;99.90
23744;DHT22;12052;53.478;10.182;2023-09-12T02:57:22;19.20;99.90
23744;DHT22;12052;53.478;10.182;2023-09-12T02:59:48;19.20;99.90
23744;DHT22;12052;53.478;10.182;2023-09-12T03:02:13;19.30;99.90
23744;DHT22;12052;53.478;10.182;2023-09-12T03:04:39;19.30;99.90
23744;DHT22;12052;53.478;10.182;2023-09-12T03:07:05;19.30;99.90
23744;DHT22;12052;53.478;10.182;2023-09-12T03:09:30;19.30;99.90
23744;DHT22;12052;53.478;10.182;2023-09-12T03:11:56;19.40;99.90
23744;DHT22;12052;53.478;10.182;2023-09-12T03:14:21;19.30;99.90
23744;DHT22;12052;53.478;10.182;2023-09-12T03:16:47;19.30;99.90
23744;DHT22;12052;53.478;10.182;2023-09-12T03:19:12;19.30;99.90
23744;DHT22;12052;53.478;10.182;2023-09-12T03:21:38;19.30;99.90
23744;DHT22;12052;53.478;10.182;2023-09-12T03:24:04;19.30;99.90
23744;DHT22;12052;53.478;10.182;2023-09-12T03:26:30;19.30;99.90
23744;DHT22;12052;53.478;10.182;2023-09-12T03:28:55;19.20;99.90
23744;DHT22;12052;53.478;10.182;2023-09-12T03:31:21;19.20;99.90
23744;DHT22;12052;53.478;10.182;2023-09-12T03:33:46;19.20;99.90
23744;DHT22;12052;53.478;10.182;2023-09-12T03:36:15;19.20;99.90
23744;DHT22;12052;53.478;10.182;2023-09-12T03:38:41;19.20;99.90
23744;DHT22;12052;53.478;10.182;2023-09-12T03:41:07;19.20;99.90
23744;DHT22;12052;53.478;10.182;2023-09-12T03:43:33;19.30;99.90
23744;DHT22;12052;53.478;10.182;2023-09-12T03:45:59;19.30;99.90
23744;DHT22;12052;53.478;10.182;2023-09-12T03:48:25;19.20;99.90
23744;DHT22;12052;53.478;10.182;2023-09-12T03:50:50;19.20;99.90
23744;DHT22;12052;53.478;10.182;2023-09-12T03:53:17;19.20;99.90
23744;DHT22;12052;53.478;10.182;2023-09-12T03:55:43;19.20;99.90
23744;DHT22;12052;53.478;10.182;2023-09-12T03:58:08;19.30;99.90
23744;DHT22;12052;53.478;10.182;2023-09-12T04:00:34;19.30;99.90
23744;DHT22;12052;53.478;10.182;2023-09-12T04:03:00;19.20;99.90
23744;DHT22;12052;53.478;10.182;2023-09-12T04:05:26;19.20;99.90
23744;DHT22;12052;53.478;10.182;2023-09-12T04:07:52;19.20;99.90
23744;DHT22;12052;53.478;10.182;2023-09-12T04:10:19;19.20;99.90
23744;DHT22;12052;53.478;10.182;2023-09-12T04:12:44;19.30;99.90
23744;DHT22;12052;53.478;10.182;2023-09-12T04:15:10;19.40;99.90
23744;DHT22;12052;53.478;10.182;2023-09-12T04:17:35;19.40;99.90
23744;DHT22;12052;53.478;10.182;2023-09-12T04:20:01;19.40;99.90
23744;DHT22;12052;53.478;10.182;2023-09-12T04:22:27;19.30;99.90
23744;DHT22;12052;53.478;10.182;2023-09-12T04:24:53;19.30;99.90
23744;DHT22;12052;53.478;10.182;2023-09-12T04:27:19;19.30;99.90
23744;DHT22;12052;53.478;10.182;2023-09-12T04:29:45;19.20;99.90
23744;DHT22;12052;53.478;10.182;2023-09-12T04:32:11;19.20;99.90
23744;DHT22;12052;53.478;10.182;2023-09-12T04:34:36;19.20;99.90
23744;DHT22;12052;53.478;10.182;2023-09-12T04:37:02;19.10;99.90
23744;DHT22;12052;53.478;10.182;2023-09-12T04:39:28;19.20;99.90
23744;DHT22;12052;53.478;10.182;2023-09-12T04:41:55;19.10;99.90
23744;DHT22;12052;53.478;10.182;2023-09-12T04:44:20;19.10;99.90
23744;DHT22;12052;53.478;10.182;2023-09-12T04:46:46;19.10;99.90
23744;DHT22;12052;53.478;10.182;2023-09-12T04:49:12;19.00;99.90
23744;DHT22;12052;53.478;10.182;2023-09-12T04:51:37;19.00;99.90
23744;DHT22;12052;53.478;10.182;2023-09-12T04:54:03;18.90;99.90
23744;DHT22;12052;53.478;10.182;2023-09-12T04:56:29;19.00;99.90
23744;DHT22;12052;53.478;10.182;2023-09-12T04:58:54;19.00;99.90
23744;DHT22;12052;53.478;10.182;2023-09-12T05:01:20;19.00;99.90
23744;DHT22;12052;53.478;10.182;2023-09-12T05:03:45;19.00;99.90
23744;DHT22;12052;53.478;10.182;2023-09-12T05:06:12;19.00;99.90
23744;DHT22;12052;53.478;10.182;2023-09-12T05:08:38;18.90;99.90
23744;DHT22;12052;53.478;10.182;2023-09-12T05:11:03;18.90;99.90
23744;DHT22;12052;53.478;10.182;2023-09-12T05:13:30;18.90;99.90
23744;DHT22;12052;53.478;10.182;2023-09-12T05:15:55;18.80;99.90
23744;DHT22;12052;53.478;10.182;2023-09-12T05:18:22;18.90;99.90
23744;DHT22;12052;53.478;10.182;2023-09-12T05:20:48;18.90;99.90
23744;DHT22;12052;53.478;10.182;2023-09-12T05:23:13;18.90;99.90
23744;DHT22;12052;53.478;10.182;2023-09-12T05:25:39;18.90;99.90
23744;DHT22;12052;53.478;10.182;2023-09-12T05:28:04;18.80;99.90
23744;DHT22;12052;53.478;10.182;2023-09-12T05:30:30;18.80;99.90
23744;DHT22;12052;53.478;10.182;2023-09-12T05:32:56;18.70;99.90
23744;DHT22;12052;53.478;10.182;2023-09-12T05:35:21;18.70;99.90
23744;DHT22;12052;53.478;10.182;2023-09-12T05:37:47;18.70;99.90
23744;DHT22;12052;53.478;10.182;2023-09-12T05:40:13;18.80;99.90
23744;DHT22;12052;53.478;10.182;2023-09-12T05:42:38;18.80;99.90
23744;DHT22;12052;53.478;10.182;2023-09-12T05:45:05;18.80;99.90
23744;DHT22;12052;53.478;10.182;2023-09-12T05:47:31;18.80;99.90
23744;DHT22;12052;53.478;10.182;2023-09-12T05:49:56;18.80;99.90
23744;DHT22;12052;53.478;10.182;2023-09-12T05:52:24;18.80;99.90
23744;DHT22;12052;53.478;10.182;2023-09-12T05:54:50;18.80;99.90
23744;DHT22;12052;53.478;10.182;2023-09-12T05:57:15;18.70;99.90
23744;DHT22;12052;53.478;10.182;2023-09-12T05:59:41;18.70;99.90
23744;DHT22;12052;53.478;10.182;2023-09-12T06:02:07;18.70;99.90
23744;DHT22;12052;53.478;10.182;2023-09-12T06:04:35;18.70;99.90
23744;DHT22;12052;53.478;10.182;2023-09-12T06:07:02;18.70;99.90
23744;DHT22;12052;53.478;10.182;2023-09-12T06:09:28;18.70;99.90
23744;DHT22;12052;53.478;10.182;2023-09-12T06:11:53;18.70;99.90
23744;DHT22;12052;53.478;10.182;2023-09-12T06:14:19;18.80;99.90
23744;DHT22;12052;53.478;10.182;2023-09-12T06:16:45;18.70;99.90
23744;DHT22;12052;53.478;10.182;2023-09-12T06:19:10;18.80;99.90
23744;DHT22;12052;53.478;10.182;2023-09-12T06:21:36;18.80;99.90
23744;DHT22;12052;53.478;10.182;2023-09-12T06:24:16;18.80;99.90
23744;DHT22;12052;53.478;10.182;2023-09-12T06:26:42;18.90;99.90
23744;DHT22;12052;53.478;10.182;2023-09-12T06:29:08;18.80;99.90
23744;DHT22;12052;53.478;10.182;2023-09-12T06:31:34;18.80;99.90
23744;DHT22;12052;53.478;10.182;2023-09-12T06:34:01;18.80;99.90
23744;DHT22;12052;53.478;10.182;2023-09-12T06:36:27;18.90;99.90
23744;DHT22;12052;53.478;10.182;2023-09-12T06:38:56;18.90;99.90
23744;DHT22;12052;53.478;10.182;2023-09-12T06:41:22;19.00;99.90
23744;DHT22;12052;53.478;10.182;2023-09-12T06:43:47;19.00;99.90
23744;DHT22;12052;53.478;10.182;2023-09-12T06:46:14;19.10;99.90
23744;DHT22;12052;53.478;10.182;2023-09-12T06:48:39;19.10;99.90
23744;DHT22;12052;53.478;10.182;2023-09-12T06:51:07;19.00;99.90
23744;DHT22;12052;53.478;10.182;2023-09-12T06:53:33;19.00;99.90
23744;DHT22;12052;53.478;10.182;2023-09-12T06:55:59;19.00;99.90
23744;DHT22;12052;53.478;10.182;2023-09-12T06:58:25;19.00;99.90
23744;DHT22;12052;53.478;10.182;2023-09-12T07:00:51;19.10;99.90
23744;DHT22;12052;53.478;10.182;2023-09-12T07:03:16;19.10;99.90
23744;DHT22;12052;53.478;10.182;2023-09-12T07:05:42;19.10;99.90
23744;DHT22;12052;53.478;10.182;2023-09-12T07:08:08;19.10;99.90
23744;DHT22;12052;53.478;10.182;2023-09-12T07:10:34;19.10;99.90
23744;DHT22;12052;53.478;10.182;2023-09-12T07:13:01;19.10;99.90
23744;DHT22;12052;53.478;10.182;2023-09-12T07:15:26;19.20;99.90
23744;DHT22;12052;53.478;10.182;2023-09-12T07:17:52;19.10;99.90
23744;DHT22;12052;53.478;10.182;2023-09-12T07:20:18;19.10;99.90
23744;DHT22;12052;53.478;10.182;2023-09-12T07:22:45;19.10;99.90
23744;DHT22;12052;53.478;10.182;2023-09-12T07:25:13;19.10;99.90
23744;DHT22;12052;53.478;10.182;2023-09-12T07:27:39;19.10;99.90
23744;DHT22;12052;53.478;10.182;2023-09-12T07:30:06;19.10;99.90
23744;DHT22;12052;53.478;10.182;2023-09-12T07:32:31;19.10;99.90
23744;DHT22;12052;53.478;10.182;2023-09-12T07:34:57;19.10;99.90
23744;DHT22;12052;53.478;10.182;2023-09-12T07:37:22;19.10;99.90
23744;DHT22;12052;53.478;10.182;2023-09-12T07:39:48;19.10;99.90
23744;DHT22;12052;53.478;10.182;2023-09-12T07:42:14;19.10;99.90
23744;DHT22;12052;53.478;10.182;2023-09-12T07:44:39;19.10;99.90
23744;DHT22;12052;53.478;10.182;2023-09-12T07:47:05;19.10;99.90
23744;DHT22;12052;53.478;10.182;2023-09-12T07:49:30;19.20;99.90
23744;DHT22;12052;53.478;10.182;2023-09-12T07:51:56;19.20;99.90
23744;DHT22;12052;53.478;10.182;2023-09-12T07:54:22;19.20;99.90
23744;DHT22;12052;53.478;10.182;2023-09-12T07:56:48;19.20;99.90
23744;DHT22;12052;53.478;10.182;2023-09-12T07:59:14;19.20;99.90
23744;DHT22;12052;53.478;10.182;2023-09-12T08:01:40;19.20;99.90
23744;DHT22;12052;53.478;10.182;2023-09-12T08:04:06;19.30;99.90
23744;DHT22;12052;53.478;10.182;2023-09-12T08:06:32;19.30;99.90
23744;DHT22;12052;53.478;10.182;2023-09-12T08:08:58;19.30;99.90
23744;DHT22;12052;53.478;10.182;2023-09-12T08:11:24;19.30;99.90
23744;DHT22;12052;53.478;10.182;2023-09-12T08:13:50;19.40;99.90
23744;DHT22;12052;53.478;10.182;2023-09-12T08:16:16;19.40;99.90
23744;DHT22;12052;53.478;10.182;2023-09-12T08:18:42;19.40;99.90
23744;DHT22;12052;53.478;10.182;2023-09-12T08:21:08;19.40;99.90
23744;DHT22;12052;53.478;10.182;2023-09-12T08:23:33;19.50;99.90
23744;DHT22;12052;53.478;10.182;2023-09-12T08:26:00;19.50;99.90
23744;DHT22;12052;53.478;10.182;2023-09-12T08:28:25;19.40;99.90
23744;DHT22;12052;53.478;10.182;2023-09-12T08:30:51;19.30;99.90
23744;DHT22;12052;53.478;10.182;2023-09-12T08:33:17;19.40;99.90
23744;DHT22;12052;53.478;10.182;2023-09-12T08:35:43;19.40;99.90
23744;DHT22;12052;53.478;10.182;2023-09-12T08:38:09;19.50;99.90
23744;DHT22;12052;53.478;10.182;2023-09-12T08:40:35;19.60;99.90
23744;DHT22;12052;53.478;10.182;2023-09-12T08:43:01;19.60;99.90
23744;DHT22;12052;53.478;10.182;2023-09-12T08:45:29;19.70;99.90
23744;DHT22;12052;53.478;10.182;2023-09-12T08:47:56;19.70;99.90
23744;DHT22;12052;53.478;10.182;2023-09-12T08:50:22;19.70;99.90
23744;DHT22;12052;53.478;10.182;2023-09-12T08:52:50;19.70;99.90
23744;DHT22;12052;53.478;10.182;2023-09-12T08:55:16;19.80;99.90
23744;DHT22;12052;53.478;10.182;2023-09-12T08:57:43;19.80;99.90
23744;DHT22;12052;53.478;10.182;2023-09-12T09:00:10;19.90;99.90
23744;DHT22;12052;53.478;10.182;2023-09-12T09:02:40;19.90;99.90
23744;DHT22;12052;53.478;10.182;2023-09-12T09:05:07;20.10;99.90
23744;DHT22;12052;53.478;10.182;2023-09-12T09:07:39;20.10;99.90
23744;DHT22;12052;53.478;10.182;2023-09-12T09:10:06;20.10;99.90
23744;DHT22;12052;53.478;10.182;2023-09-12T09:12:34;20.00;99.90
23744;DHT22;12052;53.478;10.182;2023-09-12T09:15:29;20.10;99.90
23744;DHT22;12052;53.478;10.182;2023-09-12T09:17:56;20.20;99.90
23744;DHT22;12052;53.478;10.182;2023-09-12T09:20:29;20.30;99.90
23744;DHT22;12052;53.478;10.182;2023-09-12T09:25:22;20.30;99.90
23744;DHT22;12052;53.478;10.182;2023-09-12T09:27:47;20.30;99.90
23744;DHT22;12052;53.478;10.182;2023-09-12T09:30:13;20.40;99.90
23744;DHT22;12052;53.478;10.182;2023-09-12T09:32:38;20.50;99.90
23744;DHT22;12052;53.478;10.182;2023-09-12T09:35:04;20.50;99.90
23744;DHT22;12052;53.478;10.182;2023-09-12T09:37:30;20.50;99.90
23744;DHT22;12052;53.478;10.182;2023-09-12T09:39:56;20.60;99.90
23744;DHT22;12052;53.478;10.182;2023-09-12T09:42:21;20.70;99.90
23744;DHT22;12052;53.478;10.182;2023-09-12T09:44:47;20.80;99.90
23744;DHT22;12052;53.478;10.182;2023-09-12T09:47:14;20.90;99.90
23744;DHT22;12052;53.478;10.182;2023-09-12T09:49:39;21.00;99.90
23744;DHT22;12052;53.478;10.182;2023-09-12T09:52:05;21.00;99.90
23744;DHT22;12052;53.478;10.182;2023-09-12T09:54:31;21.10;99.90
23744;DHT22;12052;53.478;10.182;2023-09-12T09:56:57;21.10;99.90
23744;DHT22;12052;53.478;10.182;2023-09-12T09:59:24;21.10;99.90
23744;DHT22;12052;53.478;10.182;2023-09-12T10:01:58;21.00;99.90
23744;DHT22;12052;53.478;10.182;2023-09-12T10:04:27;21.00;99.90
23744;DHT22;12052;53.478;10.182;2023-09-12T10:06:57;20.90;99.90
23744;DHT22;12052;53.478;10.182;2023-09-12T10:09:26;20.80;99.90
23744;DHT22;12052;53.478;10.182;2023-09-12T10:11:52;20.80;99.90
23744;DHT22;12052;53.478;10.182;2023-09-12T10:14:20;20.80;99.90
23744;DHT22;12052;53.478;10.182;2023-09-12T10:16:48;20.80;99.90
23744;DHT22;12052;53.478;10.182;2023-09-12T10:19:27;20.80;99.90
23744;DHT22;12052;53.478;10.182;2023-09-12T10:24:43;20.80;99.90
23744;DHT22;12052;53.478;10.182;2023-09-12T10:27:11;20.80;99.90
23744;DHT22;12052;53.478;10.182;2023-09-12T10:29:37;20.80;99.90
23744;DHT22;12052;53.478;10.182;2023-09-12T10:32:03;20.80;99.90
23744;DHT22;12052;53.478;10.182;2023-09-12T10:34:31;20.80;99.90
23744;DHT22;12052;53.478;10.182;2023-09-12T10:36:58;20.70;99.90
23744;DHT22;12052;53.478;10.182;2023-09-12T10:39:31;20.70;99.90
23744;DHT22;12052;53.478;10.182;2023-09-12T10:41:58;20.70;99.90
23744;DHT22;12052;53.478;10.182;2023-09-12T10:44:24;20.70;99.90
23744;DHT22;12052;53.478;10.182;2023-09-12T10:46:51;20.60;99.90
23744;DHT22;12052;53.478;10.182;2023-09-12T10:49:19;20.60;99.90
23744;DHT22;12052;53.478;10.182;2023-09-12T10:51:46;20.60;99.90
23744;DHT22;12052;53.478;10.182;2023-09-12T10:54:44;20.50;99.90
23744;DHT22;12052;53.478;10.182;2023-09-12T10:57:11;20.50;99.90
23744;DHT22;12052;53.478;10.182;2023-09-12T11:05:01;20.40;99.90
23744;DHT22;12052;53.478;10.182;2023-09-12T11:07:43;20.40;99.90
23744;DHT22;12052;53.478;10.182;2023-09-12T11:10:18;20.30;99.90
23744;DHT22;12052;53.478;10.182;2023-09-12T11:12:46;20.40;99.90
23744;DHT22;12052;53.478;10.182;2023-09-12T11:15:13;20.40;99.90
23744;DHT22;12052;53.478;10.182;2023-09-12T11:17:41;20.40;99.90
23744;DHT22;12052;53.478;10.182;2023-09-12T11:20:08;20.30;99.90
23744;DHT22;12052;53.478;10.182;2023-09-12T11:22:43;20.30;99.90
23744;DHT22;12052;53.478;10.182;2023-09-12T11:30:22;20.30;99.90
23744;DHT22;12052;53.478;10.182;2023-09-12T11:32:50;20.30;99.90
23744;DHT22;12052;53.478;10.182;2023-09-12T11:35:23;20.40;99.90
23744;DHT22;12052;53.478;10.182;2023-09-12T11:37:59;20.30;99.90
23744;DHT22;12052;53.478;10.182;2023-09-12T11:43:00;20.20;99.90
23744;DHT22;12052;53.478;10.182;2023-09-12T11:45:26;20.20;99.90
23744;DHT22;12052;53.478;10.182;2023-09-12T11:47:53;20.20;99.90
23744;DHT22;12052;53.478;10.182;2023-09-12T11:53:00;20.20;99.90
23744;DHT22;12052;53.478;10.182;2023-09-12T11:55:26;20.10;99.90
23744;DHT22;12052;53.478;10.182;2023-09-12T11:57:52;20.10;99.90
23744;DHT22;12052;53.478;10.182;2023-09-12T12:00:18;20.10;99.90
23744;DHT22;12052;53.478;10.182;2023-09-12T12:02:45;20.20;99.90
23744;DHT22;12052;53.478;10.182;2023-09-12T12:05:11;20.20;99.90
23744;DHT22;12052;53.478;10.182;2023-09-12T12:07:37;20.10;99.90
23744;DHT22;12052;53.478;10.182;2023-09-12T12:10:04;20.10;99.90
23744;DHT22;12052;53.478;10.182;2023-09-12T12:12:30;20.00;99.90
23744;DHT22;12052;53.478;10.182;2023-09-12T12:14:55;20.00;99.90
23744;DHT22;12052;53.478;10.182;2023-09-12T12:17:21;20.00;99.90
23744;DHT22;12052;53.478;10.182;2023-09-12T12:19:47;20.00;99.90
23744;DHT22;12052;53.478;10.182;2023-09-12T12:22:12;20.00;99.90
23744;DHT22;12052;53.478;10.182;2023-09-12T12:24:40;20.00;99.90
23744;DHT22;12052;53.478;10.182;2023-09-12T12:27:06;20.00;99.90
23744;DHT22;12052;53.478;10.182;2023-09-12T12:29:33;20.10;99.90
23744;DHT22;12052;53.478;10.182;2023-09-12T12:32:02;20.00;99.90
23744;DHT22;12052;53.478;10.182;2023-09-12T12:34:30;20.00;99.90
23744;DHT22;12052;53.478;10.182;2023-09-12T12:36:57;20.10;99.90
23744;DHT22;12052;53.478;10.182;2023-09-12T12:39:23;20.10;99.90
23744;DHT22;12052;53.478;10.182;2023-09-12T12:41:51;20.20;99.90
23744;DHT22;12052;53.478;10.182;2023-09-12T12:44:17;20.20;99.90
23744;DHT22;12052;53.478;10.182;2023-09-12T12:46:53;20.20;99.90
23744;DHT22;12052;53.478;10.182;2023-09-12T12:49:19;20.10;99.90
23744;DHT22;12052;53.478;10.182;2023-09-12T12:51:46;20.20;99.90
23744;DHT22;12052;53.478;10.182;2023-09-12T12:54:12;20.20;99.90
23744;DHT22;12052;53.478;10.182;2023-09-12T12:56:38;20.30;99.90
23744;DHT22;12052;53.478;10.182;2023-09-12T12:59:06;20.30;99.90
23744;DHT22;12052;53.478;10.182;2023-09-12T13:01:34;20.10;99.90
23744;DHT22;12052;53.478;10.182;2023-09-12T13:04:00;20.10;99.90
23744;DHT22;12052;53.478;10.182;2023-09-12T13:06:25;20.10;99.90
23744;DHT22;12052;53.478;10.182;2023-09-12T13:08:53;20.20;99.90
23744;DHT22;12052;53.478;10.182;2023-09-12T13:11:19;20.20;99.90
23744;DHT22;12052;53.478;10.182;2023-09-12T13:13:45;20.20;99.90
23744;DHT22;12052;53.478;10.182;2023-09-12T13:16:13;20.20;99.90
23744;DHT22;12052;53.478;10.182;2023-09-12T13:18:39;20.30;99.90
23744;DHT22;12052;53.478;10.182;2023-09-12T13:21:06;20.30;99.90
23744;DHT22;12052;53.478;10.182;2023-09-12T13:23:35;20.20;99.90
23744;DHT22;12052;53.478;10.182;2023-09-12T13:26:01;20.20;99.90
23744;DHT22;12052;53.478;10.182;2023-09-12T13:28:26;20.20;99.90
23744;DHT22;12052;53.478;10.182;2023-09-12T13:30:53;20.30;99.90
23744;DHT22;12052;53.478;10.182;2023-09-12T13:33:18;20.20;99.90
23744;DHT22;12052;53.478;10.182;2023-09-12T13:35:44;20.10;99.90
23744;DHT22;12052;53.478;10.182;2023-09-12T13:38:10;20.20;99.90
23744;DHT22;12052;53.478;10.182;2023-09-12T13:40:40;20.30;99.90
23744;DHT22;12052;53.478;10.182;2023-09-12T13:43:07;20.30;99.90
23744;DHT22;12052;53.478;10.182;2023-09-12T13:45:33;20.50;99.90
23744;DHT22;12052;53.478;10.182;2023-09-12T13:47:59;20.60;99.90
23744;DHT22;12052;53.478;10.182;2023-09-12T13:50:26;20.80;99.90
23744;DHT22;12052;53.478;10.182;2023-09-12T13:52:55;20.90;99.90
23744;DHT22;12052;53.478;10.182;2023-09-12T13:55:22;20.90;99.90
23744;DHT22;12052;53.478;10.182;2023-09-12T13:57:48;20.80;99.90
23744;DHT22;12052;53.478;10.182;2023-09-12T14:00:14;20.80;99.90
23744;DHT22;12052;53.478;10.182;2023-09-12T14:02:39;20.70;99.90
23744;DHT22;12052;53.478;10.182;2023-09-12T14:05:05;20.60;99.90
23744;DHT22;12052;53.478;10.182;2023-09-12T14:07:31;20.70;99.90
23744;DHT22;12052;53.478;10.182;2023-09-12T14:09:56;20.70;99.90
23744;DHT22;12052;53.478;10.182;2023-09-12T14:12:23;20.70;99.90
23744;DHT22;12052;53.478;10.182;2023-09-12T14:14:49;20.70;99.90
23744;DHT22;12052;53.478;10.182;2023-09-12T14:17:15;20.70;99.90
23744;DHT22;12052;53.478;10.182;2023-09-12T14:19:40;20.80;99.90
23744;DHT22;12052;53.478;10.182;2023-09-12T14:22:06;20.70;99.90
23744;DHT22;12052;53.478;10.182;2023-09-12T14:24:32;20.80;99.90
23744;DHT22;12052;53.478;10.182;2023-09-12T14:26:57;20.70;99.90
23744;DHT22;12052;53.478;10.182;2023-09-12T14:29:23;20.70;99.90
23744;DHT22;12052;53.478;10.182;2023-09-12T14:31:52;20.70;99.90
23744;DHT22;12052;53.478;10.182;2023-09-12T14:34:23;20.70;99.90
23744;DHT22;12052;53.478;10.182;2023-09-12T14:36:49;20.80;99.90
23744;DHT22;12052;53.478;10.182;2023-09-12T14:39:14;20.80;99.90
23744;DHT22;12052;53.478;10.182;2023-09-12T14:41:40;20.80;99.90
23744;DHT22;12052;53.478;10.182;2023-09-12T14:44:06;20.80;99.90
23744;DHT22;12052;53.478;10.182;2023-09-12T14:46:31;20.80;99.90
23744;DHT22;12052;53.478;10.182;2023-09-12T14:48:57;20.80;99.90
23744;DHT22;12052;53.478;10.182;2023-09-12T14:51:23;20.80;99.90
23744;DHT22;12052;53.478;10.182;2023-09-12T14:53:49;20.70;99.90
23744;DHT22;12052;53.478;10.182;2023-09-12T14:56:14;20.70;99.90
23744;DHT22;12052;53.478;10.182;2023-09-12T14:58:40;20.80;99.90
23744;DHT22;12052;53.478;10.182;2023-09-12T15:01:05;20.80;99.90
23744;DHT22;12052;53.478;10.182;2023-09-12T15:03:31;20.80;99.90
23744;DHT22;12052;53.478;10.182;2023-09-12T15:06:03;20.90;99.90
23744;DHT22;12052;53.478;10.182;2023-09-12T15:08:29;20.90;99.90
23744;DHT22;12052;53.478;10.182;2023-09-12T15:10:55;21.00;99.90
23744;DHT22;12052;53.478;10.182;2023-09-12T15:13:20;21.00;99.90
23744;DHT22;12052;53.478;10.182;2023-09-12T15:15:46;21.00;99.90
23744;DHT22;12052;53.478;10.182;2023-09-12T15:18:11;21.10;99.90
23744;DHT22;12052;53.478;10.182;2023-09-12T15:20:37;21.10;99.90
23744;DHT22;12052;53.478;10.182;2023-09-12T15:23:02;21.20;99.90
23744;DHT22;12052;53.478;10.182;2023-09-12T15:25:30;21.20;99.90
23744;DHT22;12052;53.478;10.182;2023-09-12T15:27:58;21.20;99.90
23744;DHT22;12052;53.478;10.182;2023-09-12T15:30:23;21.20;99.90
23744;DHT22;12052;53.478;10.182;2023-09-12T15:32:49;21.20;99.90
23744;DHT22;12052;53.478;10.182;2023-09-12T15:35:14;21.20;99.90
23744;DHT22;12052;53.478;10.182;2023-09-12T15:37:40;21.20;99.90
23744;DHT22;12052;53.478;10.182;2023-09-12T15:40:06;21.20;99.90